sensor_id;sensor_type;location;lat;lon;timestamp;pressure;altitude;pressure_sealevel;temperature;humidity
41140;BME280;26881;48.784;9.192;2023-08-07T00:02:08;98403.41;;;12.42;88.64
41140;BME280;26881;48.784;9.192;2023-08-07T00:07:30;98416.13;;;12.35;87.58
41140;BME280;26881;48.784;9.192;2023-08-07T00:12:52;98419.06;;;12.43;87.15
41140;BME280;26881;48.784;9.192;2023-08-07T00:18:14;98421.72;;;12.31;87.47
41140;BME280;26881;48.784;9.192;2023-08-07T00:23:36;98418.88;;;12.34;87.33
41140;BME280;26881;48.784;9.192;2023-08-07T00:28:58;98422.75;;;12.41;87.22
41140;BME280;26881;48.784;9.192;2023-08-07T00:34:20;98435.13;;;12.39;87.60
41140;BME280;26881;48.784;9.192;2023-08-07T00:39:42;98434.47;;;12.48;85.64
41140;BME280;26881;48.784;9.192;2023-08-07T00:45:05;98441.41;;;12.36;84.99
41140;BME280;26881;48.784;9.192;2023-08-07T00:50:27;98455.56;;;12.34;84.47
41140;BME280;26881;48.784;9.192;2023-08-07T00:56:07;98455.66;;;12.32;84.52
41140;BME280;26881;48.784;9.192;2023-08-07T01:01:29;98452.84;;;12.48;82.66
41140;BME280;26881;48.784;9.192;2023-08-07T01:06:51;98452.84;;;12.48;82.93
41140;BME280;26881;48.784;9.192;2023-08-07T01:12:16;98460.38;;;12.40;84.30
41140;BME280;26881;48.784;9.192;2023-08-07T01:17:42;98467.41;;;12.39;85.03
41140;BME280;26881;48.784;9.192;2023-08-07T01:23:05;98462.63;;;12.33;85.30
41140;BME280;26881;48.784;9.192;2023-08-07T01:28:32;98459.38;;;12.42;83.62
41140;BME280;26881;48.784;9.192;2023-08-07T01:34:02;98451.69;;;12.39;82.07
41140;BME280;26881;48.784;9.192;2023-08-07T01:39:25;98454.63;;;12.48;79.81
41140;BME280;26881;48.784;9.192;2023-08-07T01:44:48;98459.88;;;12.48;79.57
41140;BME280;26881;48.784;9.192;2023-08-07T01:50:09;98447.09;;;12.43;79.92
41140;BME280;26881;48.784;9.192;2023-08-07T01:55:31;98449.81;;;12.54;78.85
41140;BME280;26881;48.784;9.192;2023-08-07T02:00:53;98467.84;;;12.46;78.06
41140;BME280;26881;48.784;9.192;2023-08-07T02:06:15;98463.13;;;12.51;77.20
41140;BME280;26881;48.784;9.192;2023-08-07T02:11:37;98466.81;;;12.61;77.24
41140;BME280;26881;48.784;9.192;2023-08-07T02:16:59;98459.66;;;12.51;77.35
41140;BME280;26881;48.784;9.192;2023-08-07T02:22:21;98470.16;;;12.51;77.63
41140;BME280;26881;48.784;9.192;2023-08-07T02:27:43;98485.59;;;12.55;76.62
41140;BME280;26881;48.784;9.192;2023-08-07T02:33:05;98481.38;;;12.65;76.65
41140;BME280;26881;48.784;9.192;2023-08-07T02:38:26;98489.13;;;12.41;77.32
41140;BME280;26881;48.784;9.192;2023-08-07T02:43:48;98481.38;;;12.40;76.26
41140;BME280;26881;48.784;9.192;2023-08-07T02:49:10;98472.56;;;12.41;75.81
41140;BME280;26881;48.784;9.192;2023-08-07T02:54:32;98477.72;;;12.42;74.53
41140;BME280;26881;48.784;9.192;2023-08-07T02:59:54;98489.22;;;12.40;73.59
41140;BME280;26881;48.784;9.192;2023-08-07T03:05:16;98490.72;;;12.31;73.93
41140;BME280;26881;48.784;9.192;2023-08-07T03:10:38;98481.16;;;12.30;73.34
41140;BME280;26881;48.784;9.192;2023-08-07T03:21:22;98502.75;;;12.21;73.46
41140;BME280;26881;48.784;9.192;2023-08-07T03:26:44;98500.66;;;12.13;74.19
41140;BME280;26881;48.784;9.192;2023-08-07T03:32:09;98495.09;;;12.18;74.62
41140;BME280;26881;48.784;9.192;2023-08-07T03:37:31;98481.78;;;12.21;74.08
41140;BME280;26881;48.784;9.192;2023-08-07T03:42:52;98485.75;;;12.14;74.70
41140;BME280;26881;48.784;9.192;2023-08-07T03:48:14;98496.88;;;12.17;75.30
41140;BME280;26881;48.784;9.192;2023-08-07T03:53:37;98489.34;;;12.13;75.33
41140;BME280;26881;48.784;9.192;2023-08-07T03:58:59;98491.13;;;12.25;74.65
41140;BME280;26881;48.784;9.192;2023-08-07T04:04:20;98488.72;;;12.22;74.70
41140;BME280;26881;48.784;9.192;2023-08-07T04:09:42;98500.75;;;12.12;74.83
41140;BME280;26881;48.784;9.192;2023-08-07T04:15:05;98481.03;;;12.06;75.26
41140;BME280;26881;48.784;9.192;2023-08-07T04:20:28;98500.63;;;12.00;75.76
41140;BME280;26881;48.784;9.192;2023-08-07T04:25:51;98503.97;;;12.02;76.08
41140;BME280;26881;48.784;9.192;2023-08-07T04:31:13;98510.59;;;12.08;75.91
41140;BME280;26881;48.784;9.192;2023-08-07T04:36:35;98523.59;;;12.10;76.18
41140;BME280;26881;48.784;9.192;2023-08-07T04:41:57;98525.91;;;12.14;75.56
41140;BME280;26881;48.784;9.192;2023-08-07T04:47:19;98525.75;;;12.30;74.35
41140;BME280;26881;48.784;9.192;2023-08-07T04:52:41;98522.50;;;12.27;74.85
41140;BME280;26881;48.784;9.192;2023-08-07T04:58:02;98539.59;;;12.32;74.51
41140;BME280;26881;48.784;9.192;2023-08-07T05:03:25;98535.78;;;12.23;74.79
41140;BME280;26881;48.784;9.192;2023-08-07T05:08:48;98535.81;;;12.49;73.34
41140;BME280;26881;48.784;9.192;2023-08-07T05:14:10;98537.41;;;12.39;73.84
41140;BME280;26881;48.784;9.192;2023-08-07T05:19:32;98539.38;;;12.35;74.39
41140;BME280;26881;48.784;9.192;2023-08-07T05:24:54;98535.00;;;12.49;73.50
41140;BME280;26881;48.784;9.192;2023-08-07T05:30:16;98536.47;;;12.65;72.18
41140;BME280;26881;48.784;9.192;2023-08-07T05:35:38;98550.53;;;12.64;72.82
41140;BME280;26881;48.784;9.192;2023-08-07T05:41:00;98564.00;;;12.73;72.07
41140;BME280;26881;48.784;9.192;2023-08-07T05:46:22;98568.72;;;12.80;71.45
41140;BME280;26881;48.784;9.192;2023-08-07T05:51:44;98566.06;;;12.93;71.47
41140;BME280;26881;48.784;9.192;2023-08-07T05:57:06;98567.97;;;13.04;70.48
41140;BME280;26881;48.784;9.192;2023-08-07T06:02:28;98573.94;;;13.19;69.63
41140;BME280;26881;48.784;9.192;2023-08-07T06:07:50;98573.22;;;13.30;69.50
41140;BME280;26881;48.784;9.192;2023-08-07T06:13:11;98595.06;;;13.43;68.61
41140;BME280;26881;48.784;9.192;2023-08-07T06:18:47;98593.59;;;13.39;68.26
41140;BME280;26881;48.784;9.192;2023-08-07T06:24:09;98604.06;;;13.52;68.27
41140;BME280;26881;48.784;9.192;2023-08-07T06:29:32;98603.66;;;13.58;67.88
41140;BME280;26881;48.784;9.192;2023-08-07T06:34:53;98618.69;;;13.56;68.21
41140;BME280;26881;48.784;9.192;2023-08-07T06:40:15;98598.72;;;13.53;69.09
41140;BME280;26881;48.784;9.192;2023-08-07T06:45:37;98607.19;;;13.69;68.13
41140;BME280;26881;48.784;9.192;2023-08-07T06:50:59;98603.41;;;13.74;67.57
41140;BME280;26881;48.784;9.192;2023-08-07T06:56:21;98609.16;;;14.03;66.03
41140;BME280;26881;48.784;9.192;2023-08-07T07:01:43;98618.19;;;14.11;65.13
41140;BME280;26881;48.784;9.192;2023-08-07T07:07:05;98628.53;;;14.26;63.68
41140;BME280;26881;48.784;9.192;2023-08-07T07:12:27;98609.44;;;14.35;62.64
41140;BME280;26881;48.784;9.192;2023-08-07T07:17:49;98622.88;;;14.67;60.53
41140;BME280;26881;48.784;9.192;2023-08-07T07:23:11;98627.34;;;14.78;59.33
41140;BME280;26881;48.784;9.192;2023-08-07T07:28:33;98634.63;;;14.74;59.61
41140;BME280;26881;48.784;9.192;2023-08-07T07:33:55;98629.56;;;14.60;60.26
41140;BME280;26881;48.784;9.192;2023-08-07T07:39:17;98635.00;;;14.81;60.24
41140;BME280;26881;48.784;9.192;2023-08-07T07:44:39;98630.34;;;14.96;61.20
41140;BME280;26881;48.784;9.192;2023-08-07T07:50:08;98643.69;;;15.17;59.76
41140;BME280;26881;48.784;9.192;2023-08-07T07:55:30;98635.91;;;15.49;58.58
41140;BME280;26881;48.784;9.192;2023-08-07T08:00:52;98623.81;;;15.58;56.62
41140;BME280;26881;48.784;9.192;2023-08-07T08:06:15;98645.84;;;15.57;54.74
41140;BME280;26881;48.784;9.192;2023-08-07T08:11:37;98653.50;;;15.15;53.93
41140;BME280;26881;48.784;9.192;2023-08-07T08:16:59;98650.06;;;14.79;55.34
41140;BME280;26881;48.784;9.192;2023-08-07T08:22:21;98666.25;;;14.86;55.30
41140;BME280;26881;48.784;9.192;2023-08-07T08:27:43;98665.66;;;14.93;55.52
41140;BME280;26881;48.784;9.192;2023-08-07T08:33:05;98658.16;;;15.11;55.26
41140;BME280;26881;48.784;9.192;2023-08-07T08:38:27;98662.97;;;15.40;55.52
41140;BME280;26881;48.784;9.192;2023-08-07T08:43:54;98653.31;;;15.86;52.22
41140;BME280;26881;48.784;9.192;2023-08-07T08:49:22;98653.91;;;15.78;50.71
41140;BME280;26881;48.784;9.192;2023-08-07T08:54:44;98650.59;;;16.08;50.05
41140;BME280;26881;48.784;9.192;2023-08-07T09:00:08;98672.44;;;15.99;48.96
41140;BME280;26881;48.784;9.192;2023-08-07T09:05:58;98665.47;;;16.20;49.20
41140;BME280;26881;48.784;9.192;2023-08-07T09:11:20;98672.38;;;16.44;49.32
41140;BME280;26881;48.784;9.192;2023-08-07T09:16:50;98673.28;;;17.08;47.79
41140;BME280;26881;48.784;9.192;2023-08-07T09:22:12;98684.16;;;17.35;46.84
41140;BME280;26881;48.784;9.192;2023-08-07T09:27:34;98685.28;;;16.91;48.10
41140;BME280;26881;48.784;9.192;2023-08-07T09:33:01;98675.03;;;16.97;48.38
41140;BME280;26881;48.784;9.192;2023-08-07T09:38:23;98688.03;;;16.89;49.03
41140;BME280;26881;48.784;9.192;2023-08-07T09:43:45;98703.00;;;16.79;46.91
41140;BME280;26881;48.784;9.192;2023-08-07T09:49:07;98705.41;;;18.16;45.09
41140;BME280;26881;48.784;9.192;2023-08-07T09:54:30;98708.69;;;17.99;44.25
41140;BME280;26881;48.784;9.192;2023-08-07T09:59:56;98713.94;;;17.58;46.29
41140;BME280;26881;48.784;9.192;2023-08-07T10:05:18;98704.72;;;18.14;44.28
41140;BME280;26881;48.784;9.192;2023-08-07T10:10:40;98713.59;;;18.83;44.31
41140;BME280;26881;48.784;9.192;2023-08-07T10:16:02;98723.19;;;18.54;43.07
41140;BME280;26881;48.784;9.192;2023-08-07T10:21:24;98670.34;;;19.58;40.75
41140;BME280;26881;48.784;9.192;2023-08-07T10:26:48;98697.47;;;19.90;40.60
41140;BME280;26881;48.784;9.192;2023-08-07T10:32:11;98722.00;;;18.98;41.52
41140;BME280;26881;48.784;9.192;2023-08-07T10:37:42;98697.97;;;18.60;41.17
41140;BME280;26881;48.784;9.192;2023-08-07T10:48:29;98711.44;;;16.94;44.96
41140;BME280;26881;48.784;9.192;2023-08-07T10:53:52;98726.59;;;17.13;45.39
41140;BME280;26881;48.784;9.192;2023-08-07T10:59:17;98720.75;;;17.30;45.00
41140;BME280;26881;48.784;9.192;2023-08-07T11:04:38;98727.25;;;17.26;45.75
41140;BME280;26881;48.784;9.192;2023-08-07T11:10:00;98719.25;;;17.37;44.87
41140;BME280;26881;48.784;9.192;2023-08-07T11:15:22;98720.47;;;17.12;44.86
41140;BME280;26881;48.784;9.192;2023-08-07T11:20:44;98735.34;;;17.34;45.61
41140;BME280;26881;48.784;9.192;2023-08-07T11:26:07;98720.59;;;17.32;46.81
41140;BME280;26881;48.784;9.192;2023-08-07T11:31:29;98739.84;;;17.01;47.66
41140;BME280;26881;48.784;9.192;2023-08-07T11:36:51;98729.44;;;17.00;49.56
41140;BME280;26881;48.784;9.192;2023-08-07T11:42:16;98727.25;;;16.61;48.76
41140;BME280;26881;48.784;9.192;2023-08-07T11:47:38;98736.28;;;16.48;49.68
41140;BME280;26881;48.784;9.192;2023-08-07T11:53:00;98745.47;;;16.32;50.95
41140;BME280;26881;48.784;9.192;2023-08-07T11:58:25;98746.41;;;16.20;51.91
41140;BME280;26881;48.784;9.192;2023-08-07T12:03:55;98742.38;;;16.16;52.39
41140;BME280;26881;48.784;9.192;2023-08-07T12:09:17;98745.13;;;16.14;52.58
41140;BME280;26881;48.784;9.192;2023-08-07T12:14:39;98757.56;;;16.35;51.95
41140;BME280;26881;48.784;9.192;2023-08-07T12:20:06;98762.59;;;16.38;51.70
41140;BME280;26881;48.784;9.192;2023-08-07T12:25:33;98767.22;;;16.57;53.58
41140;BME280;26881;48.784;9.192;2023-08-07T12:30:56;98765.94;;;16.51;53.22
41140;BME280;26881;48.784;9.192;2023-08-07T12:36:18;98756.28;;;16.73;53.14
41140;BME280;26881;48.784;9.192;2023-08-07T12:41:42;98753.72;;;16.94;52.50
41140;BME280;26881;48.784;9.192;2023-08-07T12:47:24;98751.69;;;17.18;52.38
41140;BME280;26881;48.784;9.192;2023-08-07T12:52:46;98741.59;;;17.54;51.71
41140;BME280;26881;48.784;9.192;2023-08-07T12:58:08;98752.22;;;17.85;50.68
41140;BME280;26881;48.784;9.192;2023-08-07T13:03:30;98752.47;;;18.03;49.01
41140;BME280;26881;48.784;9.192;2023-08-07T13:08:51;98743.06;;;17.89;49.16
41140;BME280;26881;48.784;9.192;2023-08-07T13:14:13;98747.88;;;18.05;48.87
41140;BME280;26881;48.784;9.192;2023-08-07T13:19:35;98749.75;;;17.62;49.33
41140;BME280;26881;48.784;9.192;2023-08-07T13:24:57;98749.88;;;17.40;49.99
41140;BME280;26881;48.784;9.192;2023-08-07T13:30:19;98751.41;;;17.63;52.57
41140;BME280;26881;48.784;9.192;2023-08-07T13:35:41;98750.69;;;17.82;52.61
41140;BME280;26881;48.784;9.192;2023-08-07T13:41:03;98751.59;;;17.93;51.47
41140;BME280;26881;48.784;9.192;2023-08-07T13:46:25;98760.16;;;18.16;51.74
41140;BME280;26881;48.784;9.192;2023-08-07T13:51:47;98740.16;;;20.61;43.56
41140;BME280;26881;48.784;9.192;2023-08-07T13:57:09;98745.59;;;19.57;44.20
41140;BME280;26881;48.784;9.192;2023-08-07T14:02:31;98744.81;;;19.37;45.18
41140;BME280;26881;48.784;9.192;2023-08-07T14:07:56;98743.56;;;18.73;46.84
41140;BME280;26881;48.784;9.192;2023-08-07T14:13:19;98762.19;;;18.43;47.57
41140;BME280;26881;48.784;9.192;2023-08-07T14:18:41;98741.13;;;19.68;44.17
41140;BME280;26881;48.784;9.192;2023-08-07T14:24:03;98723.66;;;22.83;37.71
41140;BME280;26881;48.784;9.192;2023-08-07T14:29:25;98727.44;;;22.56;37.11
41140;BME280;26881;48.784;9.192;2023-08-07T14:34:47;98749.22;;;20.41;41.27
41140;BME280;26881;48.784;9.192;2023-08-07T14:40:10;98761.25;;;19.61;43.59
41140;BME280;26881;48.784;9.192;2023-08-07T14:45:32;98754.94;;;19.81;44.22
41140;BME280;26881;48.784;9.192;2023-08-07T14:50:54;98746.41;;;21.06;41.40
41140;BME280;26881;48.784;9.192;2023-08-07T14:56:17;98735.47;;;22.72;37.87
41140;BME280;26881;48.784;9.192;2023-08-07T15:01:39;98730.06;;;22.99;37.53
41140;BME280;26881;48.784;9.192;2023-08-07T15:07:01;98739.94;;;22.56;37.81
41140;BME280;26881;48.784;9.192;2023-08-07T15:12:24;98746.50;;;20.51;40.73
41140;BME280;26881;48.784;9.192;2023-08-07T15:17:45;98767.97;;;19.74;42.66
41140;BME280;26881;48.784;9.192;2023-08-07T15:23:07;98771.50;;;19.16;44.63
41140;BME280;26881;48.784;9.192;2023-08-07T15:28:29;98770.81;;;19.05;45.17
41140;BME280;26881;48.784;9.192;2023-08-07T15:33:52;98765.78;;;18.92;45.49
41140;BME280;26881;48.784;9.192;2023-08-07T15:39:14;98771.50;;;18.78;46.21
41140;BME280;26881;48.784;9.192;2023-08-07T15:44:36;98762.81;;;18.75;46.87
41140;BME280;26881;48.784;9.192;2023-08-07T15:50:00;98758.94;;;18.99;46.38
41140;BME280;26881;48.784;9.192;2023-08-07T15:55:22;98766.13;;;19.55;45.26
41140;BME280;26881;48.784;9.192;2023-08-07T16:00:44;98772.84;;;19.59;44.00
41140;BME280;26881;48.784;9.192;2023-08-07T16:06:05;98770.53;;;19.17;44.28
41140;BME280;26881;48.784;9.192;2023-08-07T16:11:27;98777.50;;;18.99;44.56
41140;BME280;26881;48.784;9.192;2023-08-07T16:16:51;98774.38;;;18.74;45.87
41140;BME280;26881;48.784;9.192;2023-08-07T16:22:14;98759.06;;;18.88;46.04
41140;BME280;26881;48.784;9.192;2023-08-07T16:27:37;98761.03;;;18.95;46.20
41140;BME280;26881;48.784;9.192;2023-08-07T16:32:59;98761.88;;;18.96;46.61
41140;BME280;26881;48.784;9.192;2023-08-07T16:38:21;98749.16;;;18.90;46.62
41140;BME280;26881;48.784;9.192;2023-08-07T16:43:43;98745.28;;;18.84;47.04
41140;BME280;26881;48.784;9.192;2023-08-07T16:49:05;98753.94;;;18.77;47.53
41140;BME280;26881;48.784;9.192;2023-08-07T16:54:27;98751.19;;;18.57;47.44
41140;BME280;26881;48.784;9.192;2023-08-07T16:59:49;98753.53;;;18.41;48.75
41140;BME280;26881;48.784;9.192;2023-08-07T17:05:11;98766.06;;;18.39;48.91
41140;BME280;26881;48.784;9.192;2023-08-07T17:10:32;98766.97;;;18.49;49.03
41140;BME280;26881;48.784;9.192;2023-08-07T17:15:55;98760.97;;;18.66;48.58
41140;BME280;26881;48.784;9.192;2023-08-07T17:21:20;98752.44;;;18.53;47.64
41140;BME280;26881;48.784;9.192;2023-08-07T17:26:42;98765.09;;;18.30;48.58
41140;BME280;26881;48.784;9.192;2023-08-07T17:32:05;98761.16;;;18.24;49.23
41140;BME280;26881;48.784;9.192;2023-08-07T17:37:27;98768.69;;;18.29;48.85
41140;BME280;26881;48.784;9.192;2023-08-07T17:42:49;98765.31;;;18.17;49.37
41140;BME280;26881;48.784;9.192;2023-08-07T17:48:11;98770.53;;;18.28;49.98
41140;BME280;26881;48.784;9.192;2023-08-07T17:53:33;98776.91;;;18.16;50.36
41140;BME280;26881;48.784;9.192;2023-08-07T17:58:55;98774.78;;;18.10;50.76
41140;BME280;26881;48.784;9.192;2023-08-07T18:04:17;98776.66;;;17.98;51.21
41140;BME280;26881;48.784;9.192;2023-08-07T18:09:39;98779.19;;;17.79;51.60
41140;BME280;26881;48.784;9.192;2023-08-07T18:15:01;98779.34;;;17.56;52.71
41140;BME280;26881;48.784;9.192;2023-08-07T18:20:23;98783.59;;;17.47;53.03
41140;BME280;26881;48.784;9.192;2023-08-07T18:25:45;98791.47;;;17.38;53.71
41140;BME280;26881;48.784;9.192;2023-08-07T18:31:07;98796.81;;;17.26;53.80
41140;BME280;26881;48.784;9.192;2023-08-07T18:36:29;98792.16;;;17.19;54.11
41140;BME280;26881;48.784;9.192;2023-08-07T18:41:51;98794.13;;;17.05;54.19
41140;BME280;26881;48.784;9.192;2023-08-07T18:47:13;98796.44;;;16.99;54.58
41140;BME280;26881;48.784;9.192;2023-08-07T18:52:34;98807.03;;;16.88;55.07
41140;BME280;26881;48.784;9.192;2023-08-07T18:57:56;98802.72;;;16.75;55.58
41140;BME280;26881;48.784;9.192;2023-08-07T19:03:18;98813.66;;;16.71;55.71
41140;BME280;26881;48.784;9.192;2023-08-07T19:08:41;98808.28;;;16.61;56.51
41140;BME280;26881;48.784;9.192;2023-08-07T19:14:03;98819.47;;;16.53;56.80
41140;BME280;26881;48.784;9.192;2023-08-07T19:19:25;98826.66;;;16.51;56.63
41140;BME280;26881;48.784;9.192;2023-08-07T19:24:47;98811.28;;;16.56;56.00
41140;BME280;26881;48.784;9.192;2023-08-07T19:30:09;98823.19;;;16.39;56.55
41140;BME280;26881;48.784;9.192;2023-08-07T19:35:32;98822.84;;;16.33;56.75
41140;BME280;26881;48.784;9.192;2023-08-07T19:40:56;98820.19;;;16.33;56.71
41140;BME280;26881;48.784;9.192;2023-08-07T19:46:18;98822.59;;;16.25;57.00
41140;BME280;26881;48.784;9.192;2023-08-07T19:51:41;98824.28;;;16.14;57.55
41140;BME280;26881;48.784;9.192;2023-08-07T19:57:03;98825.00;;;16.16;57.49
41140;BME280;26881;48.784;9.192;2023-08-07T20:02:25;98831.34;;;16.02;57.84
41140;BME280;26881;48.784;9.192;2023-08-07T20:07:47;98827.16;;;16.00;57.83
41140;BME280;26881;48.784;9.192;2023-08-07T20:13:09;98824.03;;;15.95;58.11
41140;BME280;26881;48.784;9.192;2023-08-07T20:18:31;98830.38;;;15.92;58.25
41140;BME280;26881;48.784;9.192;2023-08-07T20:23:54;98826.91;;;15.80;58.69
41140;BME280;26881;48.784;9.192;2023-08-07T20:29:16;98816.19;;;15.71;59.00
41140;BME280;26881;48.784;9.192;2023-08-07T20:34:38;98822.66;;;15.67;59.04
41140;BME280;26881;48.784;9.192;2023-08-07T20:40:00;98818.00;;;15.70;58.83
41140;BME280;26881;48.784;9.192;2023-08-07T20:45:22;98818.19;;;15.67;59.02
41140;BME280;26881;48.784;9.192;2023-08-07T20:50:46;98811.00;;;15.58;59.33
41140;BME280;26881;48.784;9.192;2023-08-07T20:56:08;98812.91;;;15.56;59.45
41140;BME280;26881;48.784;9.192;2023-08-07T21:01:30;98804.25;;;15.54;59.61
41140;BME280;26881;48.784;9.192;2023-08-07T21:06:52;98805.22;;;15.53;59.81
41140;BME280;26881;48.784;9.192;2023-08-07T21:12:14;98802.59;;;15.53;59.90
41140;BME280;26881;48.784;9.192;2023-08-07T21:17:36;98797.66;;;15.48;59.99
41140;BME280;26881;48.784;9.192;2023-08-07T21:22:58;98787.94;;;15.37;60.45
41140;BME280;26881;48.784;9.192;2023-08-07T21:28:20;98787.44;;;15.32;60.87
41140;BME280;26881;48.784;9.192;2023-08-07T21:33:42;98782.31;;;15.42;60.60
41140;BME280;26881;48.784;9.192;2023-08-07T21:39:04;98793.66;;;15.31;61.37
41140;BME280;26881;48.784;9.192;2023-08-07T21:44:26;98784.34;;;15.38;61.06
41140;BME280;26881;48.784;9.192;2023-08-07T21:49:48;98794.03;;;15.27;61.49
41140;BME280;26881;48.784;9.192;2023-08-07T21:55:09;98779.44;;;15.34;60.90
41140;BME280;26881;48.784;9.192;2023-08-07T22:00:32;98786.38;;;15.35;60.95
41140;BME280;26881;48.784;9.192;2023-08-07T22:05:53;98787.69;;;15.41;60.68
41140;BME280;26881;48.784;9.192;2023-08-07T22:11:15;98775.97;;;15.45;60.53
41140;BME280;26881;48.784;9.192;2023-08-07T22:16:37;98771.72;;;15.31;61.30
41140;BME280;26881;48.784;9.192;2023-08-07T22:21:59;98772.22;;;15.25;61.66
41140;BME280;26881;48.784;9.192;2023-08-07T22:27:21;98780.13;;;15.25;61.87
41140;BME280;26881;48.784;9.192;2023-08-07T22:32:43;98774.81;;;15.13;62.52
41140;BME280;26881;48.784;9.192;2023-08-07T22:38:06;98765.69;;;15.06;62.79
41140;BME280;26881;48.784;9.192;2023-08-07T22:43:28;98771.16;;;15.03;63.16
41140;BME280;26881;48.784;9.192;2023-08-07T22:48:50;98764.91;;;14.93;63.65
41140;BME280;26881;48.784;9.192;2023-08-07T22:54:12;98760.38;;;14.95;63.73
41140;BME280;26881;48.784;9.192;2023-08-07T22:59:35;98762.22;;;14.82;64.43
41140;BME280;26881;48.784;9.192;2023-08-07T23:04:58;98766.19;;;14.63;65.51
41140;BME280;26881;48.784;9.192;2023-08-07T23:10:20;98763.06;;;14.58;65.86
41140;BME280;26881;48.784;9.192;2023-08-07T23:15:42;98758.63;;;14.59;65.91
41140;BME280;26881;48.784;9.192;2023-08-07T23:21:04;98756.28;;;14.67;65.58
41140;BME280;26881;48.784;9.192;2023-08-07T23:26:26;98765.34;;;14.63;66.06
41140;BME280;26881;48.784;9.192;2023-08-07T23:31:49;98751.13;;;14.65;65.87
41140;BME280;26881;48.784;9.192;2023-08-07T23:37:11;98747.91;;;14.49;66.68
41140;BME280;26881;48.784;9.192;2023-08-07T23:42:34;98751.38;;;14.49;66.68
41140;BME280;26881;48.784;9.192;2023-08-07T23:47:56;98741.41;;;14.42;67.14
41140;BME280;26881;48.784;9.192;2023-08-07T23:53:18;98741.13;;;14.33;67.52
41140;BME280;26881;48.784;9.192;2023-08-07T23:58:39;98737.88;;;14.30;68.04
